Time;durP1;ratioP1;P1;durP2;ratioP2;P2;SDS_P1;SDS_P2;PMS_P1;PMS_P2;Temp;Humidity;BMP_temperature;BMP_pressure;BME280_temperature;BME280_humidity;BME280_pressure;Samples;Min_cycle;Max_cycle;Signal;HPM_P1;HPM_P2
2022/09/25 00:00:17;;;;;;;5.53;5.32;;;;;;;;;;4989783;28;20121;-72
2022/09/25 00:02:43;;;;;;;5.75;5.47;;;;;;;;;;4989323;28;20030;-73
2022/09/25 00:05:08;;;;;;;5.22;5.03;;;;;;;;;;4988484;28;20108;-72
2022/09/25 00:07:34;;;;;;;5.15;4.95;;;;;;;;;;4987645;28;20045;-72
2022/09/25 00:09:59;;;;;;;5.50;5.30;;;;;;;;;;4984443;28;20046;-72
2022/09/25 00:12:25;;;;;;;5.47;5.28;;;;;;;;;;4987690;28;20038;-72
2022/09/25 00:14:51;;;;;;;6.40;5.90;;;;;;;;;;4989632;28;20041;-72
2022/09/25 00:17:17;;;;;;;5.72;5.43;;;;;;;;;;4990507;28;20113;-72
2022/09/25 00:19:51;;;;;;;5.60;5.38;;;;;;;;;;4988236;28;20425;-72
2022/09/25 00:22:19;;;;;;;5.78;5.47;;;;;;;;;;4987030;28;20393;-74
2022/09/25 00:24:44;;;;;;;5.53;5.32;;;;;;;;;;4989078;28;20694;-72
2022/09/25 00:27:10;;;;;;;5.50;5.30;;;;;;;;;;4989044;28;20074;-73
2022/09/25 00:29:37;;;;;;;5.90;5.60;;;;;;;;;;4985806;28;20044;-72
2022/09/25 00:32:04;;;;;;;5.88;5.57;;;;;;;;;;4989968;28;20042;-72
2022/09/25 00:34:30;;;;;;;5.80;5.50;;;;;;;;;;4986760;28;20417;-71
2022/09/25 00:36:56;;;;;;;5.80;5.50;;;;;;;;;;4994154;28;20033;-72
2022/09/25 00:39:21;;;;;;;5.70;5.45;;;;;;;;;;4987138;28;20034;-71
2022/09/25 00:41:47;;;;;;;5.60;5.40;;;;;;;;;;4987507;28;20073;-72
2022/09/25 00:44:55;;;;;;;5.82;5.53;;;;;;;;;;4992437;28;20038;-73
2022/09/25 00:47:41;;;;;;;6.10;5.80;;;;;;;;;;4987390;28;20042;-73
2022/09/25 00:50:32;;;;;;;5.82;5.53;;;;;;;;;;4992272;28;20038;-73
2022/09/25 00:53:04;;;;;;;5.82;5.53;;;;;;;;;;4990170;28;20041;-73
2022/09/25 00:55:32;;;;;;;5.47;5.28;;;;;;;;;;4986434;28;20042;-73
2022/09/25 00:58:00;;;;;;;5.43;5.22;;;;;;;;;;4990328;28;20518;-73
2022/09/25 01:00:26;;;;;;;5.30;5.10;;;;;;;;;;4987234;28;20069;-73
2022/09/25 01:02:54;;;;;;;5.15;4.95;;;;;;;;;;4990457;28;20057;-74
2022/09/25 01:05:26;;;;;;;5.18;4.97;;;;;;;;;;4989897;28;20038;-73
2022/09/25 01:07:55;;;;;;;5.57;5.38;;;;;;;;;;4995685;28;20111;-73
2022/09/25 01:10:21;;;;;;;5.22;5.03;;;;;;;;;;4997551;28;20505;-73
2022/09/25 01:12:49;;;;;;;6.10;5.80;;;;;;;;;;4992191;28;20038;-73
2022/09/25 01:15:18;;;;;;;5.45;5.25;;;;;;;;;;4989974;28;20493;-73
2022/09/25 01:17:59;;;;;;;;;;;;;;;;;;4990263;28;20057;-73
2022/09/25 01:21:03;;;;;;;5.25;5.05;;;;;;;;;;4989796;28;19917;-73
2022/09/25 01:23:44;;;;;;;5.30;5.10;;;;;;;;;;4988899;28;20038;-73
2022/09/25 01:26:39;;;;;;;5.32;5.13;;;;;;;;;;4987698;28;20038;-73
2022/09/25 01:29:24;;;;;;;5.10;4.90;;;;;;;;;;4987491;28;20046;-73
2022/09/25 01:32:05;;;;;;;4.97;4.78;;;;;;;;;;4985994;28;20038;-73
2022/09/25 01:34:38;;;;;;;5.10;4.90;;;;;;;;;;4988464;28;20323;-73
2022/09/25 01:37:22;;;;;;;4.90;4.70;;;;;;;;;;4985454;28;20034;-73
2022/09/25 01:40:13;;;;;;;5.10;4.90;;;;;;;;;;4985129;28;20065;-73
2022/09/25 01:42:53;;;;;;;5.18;4.97;;;;;;;;;;4913315;29;20043;-73
2022/09/25 01:45:30;;;;;;;5.13;4.93;;;;;;;;;;4911297;29;20044;-73
2022/09/25 01:47:58;;;;;;;5.10;4.90;;;;;;;;;;4911766;29;20039;-73
2022/09/25 01:50:29;;;;;;;5.40;5.20;;;;;;;;;;4912456;29;20107;-71
2022/09/25 01:53:00;;;;;;;5.28;5.07;;;;;;;;;;4911238;29;20418;-71
2022/09/25 01:55:34;;;;;;;5.22;5.03;;;;;;;;;;4910793;29;20198;-74
2022/09/25 01:58:10;;;;;;;5.10;4.90;;;;;;;;;;4909736;29;20393;-71
2022/09/25 02:00:40;;;;;;;4.93;4.72;;;;;;;;;;4911422;29;20052;-71
2022/09/25 02:03:18;;;;;;;4.80;4.60;;;;;;;;;;4912960;29;20039;-71
2022/09/25 02:05:51;;;;;;;4.57;4.38;;;;;;;;;;4908825;29;20051;-71
2022/09/25 02:08:21;;;;;;;4.70;4.50;;;;;;;;;;4909811;29;20118;-71
2022/09/25 02:10:54;;;;;;;4.72;4.53;;;;;;;;;;4913930;29;20044;-71
2022/09/25 02:13:22;;;;;;;4.85;4.65;;;;;;;;;;4912216;29;20084;-73
2022/09/25 02:15:55;;;;;;;5.13;4.93;;;;;;;;;;4910120;29;20047;-73
2022/09/25 02:21:12;;;;;;;5.10;4.90;;;;;;;;;;4987882;28;20039;-73
2022/09/25 02:23:51;;;;;;;4.88;4.68;;;;;;;;;;4992063;28;20050;-73
2022/09/25 02:26:21;;;;;;;;;;;;;;;;;;4987910;28;20038;-72
2022/09/25 02:28:48;;;;;;;4.90;4.70;;;;;;;;;;4991565;28;19921;-71
2022/09/25 02:31:16;;;;;;;5.10;4.90;;;;;;;;;;4987193;28;20048;-74
2022/09/25 02:33:41;;;;;;;5.00;4.80;;;;;;;;;;4986728;28;20122;-73
2022/09/25 02:36:17;;;;;;;5.10;4.90;;;;;;;;;;4990593;28;20655;-73
2022/09/25 02:38:44;;;;;;;5.30;5.10;;;;;;;;;;4991193;28;20137;-73
2022/09/25 02:41:28;;;;;;;5.10;4.90;;;;;;;;;;4988972;28;20691;-72
2022/09/25 02:44:26;;;;;;;5.32;5.13;;;;;;;;;;4989984;28;20038;-73
2022/09/25 02:47:23;;;;;;;5.40;5.20;;;;;;;;;;4945292;28;20217;-73
2022/09/25 02:50:30;;;;;;;5.40;5.20;;;;;;;;;;4947165;28;20054;-72
2022/09/25 02:53:18;;;;;;;5.40;5.20;;;;;;;;;;4905835;28;20046;-72
2022/09/25 02:56:02;;;;;;;5.50;5.30;;;;;;;;;;4945258;28;20083;-72
2022/09/25 02:58:36;;;;;;;5.38;5.18;;;;;;;;;;4946678;28;20223;-73
2022/09/25 03:01:05;;;;;;;5.60;5.40;;;;;;;;;;4945536;28;20043;-73
2022/09/25 03:03:33;;;;;;;5.85;5.55;;;;;;;;;;4921408;29;20062;-72
2022/09/25 03:06:01;;;;;;;5.88;5.57;;;;;;;;;;4924529;28;20031;-73
2022/09/25 03:08:36;;;;;;;5.40;5.20;;;;;;;;;;4945815;28;20055;-72
2022/09/25 03:11:07;;;;;;;5.15;4.95;;;;;;;;;;4943709;29;20043;-73
2022/09/25 03:13:34;;;;;;;5.38;5.18;;;;;;;;;;4945496;29;20035;-72
2022/09/25 03:16:19;;;;;;;5.10;4.90;;;;;;;;;;4946603;28;20058;-73
2022/09/25 03:18:46;;;;;;;5.45;5.25;;;;;;;;;;4945259;28;20043;-73
2022/09/25 03:21:12;;;;;;;7.13;6.63;;;;;;;;;;4946625;28;20039;-73
2022/09/25 03:23:38;;;;;;;5.88;5.57;;;;;;;;;;4971278;28;20058;-73
2022/09/25 03:26:05;;;;;;;5.20;5.00;;;;;;;;;;4987096;28;20038;-72
2022/09/25 03:28:31;;;;;;;5.20;5.00;;;;;;;;;;4989989;28;20035;-72
2022/09/25 03:30:58;;;;;;;5.43;5.22;;;;;;;;;;4988579;28;20041;-73
2022/09/25 03:33:25;;;;;;;5.10;4.90;;;;;;;;;;4988467;28;20501;-72
2022/09/25 03:36:02;;;;;;;5.25;5.05;;;;;;;;;;4988690;28;20041;-71
2022/09/25 03:38:28;;;;;;;5.20;5.00;;;;;;;;;;4985838;28;20165;-71
2022/09/25 03:40:54;;;;;;;5.00;4.80;;;;;;;;;;4990573;28;20113;-71
2022/09/25 03:43:19;;;;;;;5.07;4.88;;;;;;;;;;4987977;28;20042;-71
2022/09/25 03:45:45;;;;;;;5.10;4.90;;;;;;;;;;4986022;28;20478;-72
2022/09/25 03:48:10;;;;;;;5.25;5.05;;;;;;;;;;4992404;28;20057;-71
2022/09/25 03:50:38;;;;;;;5.80;5.50;;;;;;;;;;4991363;28;20064;-71
2022/09/25 03:53:04;;;;;;;5.28;5.07;;;;;;;;;;4991360;28;20121;-71
2022/09/25 03:55:29;;;;;;;5.38;5.18;;;;;;;;;;4986529;28;20042;-71
2022/09/25 03:57:55;;;;;;;5.30;5.10;;;;;;;;;;4986864;28;20041;-72
2022/09/25 04:00:22;;;;;;;5.43;5.22;;;;;;;;;;4990356;28;20049;-71
2022/09/25 04:02:49;;;;;;;5.35;5.15;;;;;;;;;;4987050;28;20500;-71
2022/09/25 04:05:15;;;;;;;5.40;5.20;;;;;;;;;;4986867;28;20034;-72
2022/09/25 04:07:41;;;;;;;5.20;5.00;;;;;;;;;;4985566;28;20030;-71
2022/09/25 04:10:07;;;;;;;5.10;4.90;;;;;;;;;;4989051;28;20040;-71
2022/09/25 04:12:32;;;;;;;5.30;5.10;;;;;;;;;;4989986;28;20038;-72
2022/09/25 04:14:58;;;;;;;4.90;4.70;;;;;;;;;;4990174;28;20092;-72
2022/09/25 04:17:24;;;;;;;5.28;5.07;;;;;;;;;;4987410;28;20041;-71
2022/09/25 04:19:51;;;;;;;6.03;5.72;;;;;;;;;;4991775;28;20089;-71
2022/09/25 04:22:17;;;;;;;5.10;4.90;;;;;;;;;;4996848;28;20033;-71
2022/09/25 04:24:48;;;;;;;5.45;5.25;;;;;;;;;;4992702;28;20759;-71
2022/09/25 04:27:19;;;;;;;5.20;5.00;;;;;;;;;;4994014;28;20038;-72
2022/09/25 04:29:45;;;;;;;5.35;5.15;;;;;;;;;;4992934;28;20118;-72
2022/09/25 04:34:55;;;;;;;5.20;5.00;;;;;;;;;;4990923;28;20077;-71
2022/09/25 04:37:25;;;;;;;5.50;5.30;;;;;;;;;;4991521;28;20788;-71
2022/09/25 04:39:57;;;;;;;5.53;5.32;;;;;;;;;;4989190;28;20768;-71
2022/09/25 04:42:23;;;;;;;5.90;5.60;;;;;;;;;;4991137;28;20030;-70
2022/09/25 04:44:58;;;;;;;5.63;5.40;;;;;;;;;;4988916;28;20046;-71
2022/09/25 04:47:28;;;;;;;5.60;5.40;;;;;;;;;;4990737;28;20561;-71
2022/09/25 04:49:54;;;;;;;5.50;5.30;;;;;;;;;;4989847;28;20073;-71
2022/09/25 04:52:20;;;;;;;5.53;5.32;;;;;;;;;;4992389;28;20070;-72
2022/09/25 04:54:46;;;;;;;5.43;5.22;;;;;;;;;;4996336;28;20434;-72
2022/09/25 04:57:19;;;;;;;5.10;4.90;;;;;;;;;;4986329;28;20018;-72
2022/09/25 04:59:46;;;;;;;5.35;5.15;;;;;;;;;;4989914;28;20049;-72
2022/09/25 05:02:11;;;;;;;5.60;5.40;;;;;;;;;;4992496;28;20093;-71
2022/09/25 05:04:37;;;;;;;5.30;5.10;;;;;;;;;;4994556;28;20038;-71
2022/09/25 05:07:03;;;;;;;5.25;5.05;;;;;;;;;;4991545;28;20033;-71
2022/09/25 05:09:29;;;;;;;5.85;5.55;;;;;;;;;;4992228;28;20105;-72
2022/09/25 05:11:55;;;;;;;5.50;5.30;;;;;;;;;;4990476;28;20133;-72
2022/09/25 05:14:22;;;;;;;5.40;5.20;;;;;;;;;;4993060;28;20139;-72
2022/09/25 05:16:48;;;;;;;5.47;5.28;;;;;;;;;;4989921;28;20437;-72
2022/09/25 05:19:14;;;;;;;6.07;5.60;;;;;;;;;;4989991;28;20544;-72
2022/09/25 05:21:40;;;;;;;5.63;5.40;;;;;;;;;;4990225;28;20038;-72
2022/09/25 05:24:07;;;;;;;5.90;5.60;;;;;;;;;;4990577;28;20045;-72
2022/09/25 05:26:34;;;;;;;5.95;5.65;;;;;;;;;;4988809;28;20038;-72
2022/09/25 05:29:00;;;;;;;5.72;5.43;;;;;;;;;;4990738;28;20081;-71
2022/09/25 05:31:26;;;;;;;6.00;5.70;;;;;;;;;;4991091;28;20509;-72
2022/09/25 05:33:52;;;;;;;5.80;5.50;;;;;;;;;;4990836;28;20117;-72
2022/09/25 05:36:19;;;;;;;5.57;5.38;;;;;;;;;;4989296;28;20042;-72
2022/09/25 05:38:45;;;;;;;6.10;5.80;;;;;;;;;;4992622;28;20412;-72
2022/09/25 05:41:11;;;;;;;5.93;5.63;;;;;;;;;;4992548;28;20043;-72
2022/09/25 05:43:42;;;;;;;6.00;5.70;;;;;;;;;;4992739;28;20034;-72
2022/09/25 05:46:09;;;;;;;6.10;5.80;;;;;;;;;;4997588;28;20040;-71
2022/09/25 05:48:35;;;;;;;6.00;5.70;;;;;;;;;;4991242;28;20034;-72
2022/09/25 05:51:01;;;;;;;6.10;5.80;;;;;;;;;;4990381;28;20513;-71
2022/09/25 05:53:27;;;;;;;6.20;5.90;;;;;;;;;;4987603;28;20065;-72
2022/09/25 05:56:02;;;;;;;6.50;6.20;;;;;;;;;;4989693;28;20085;-72
2022/09/25 05:58:29;;;;;;;6.20;5.90;;;;;;;;;;4991101;28;20035;-72
2022/09/25 06:00:59;;;;;;;6.03;5.72;;;;;;;;;;4992791;28;20121;-72
2022/09/25 06:03:27;;;;;;;6.20;5.90;;;;;;;;;;4990780;28;20046;-72
2022/09/25 06:05:57;;;;;;;5.75;5.45;;;;;;;;;;4994549;28;20140;-72
2022/09/25 06:08:24;;;;;;;5.95;5.65;;;;;;;;;;4990301;28;20249;-72
2022/09/25 06:10:54;;;;;;;6.10;5.80;;;;;;;;;;4990558;28;20124;-72
2022/09/25 06:13:20;;;;;;;6.00;5.70;;;;;;;;;;4989089;28;20591;-72
2022/09/25 06:15:49;;;;;;;6.13;5.82;;;;;;;;;;4990342;28;20041;-72
2022/09/25 06:18:15;;;;;;;6.40;6.10;;;;;;;;;;4988707;28;20030;-72
2022/09/25 06:20:41;;;;;;;5.50;5.30;;;;;;;;;;4988802;28;20405;-71
2022/09/25 06:23:06;;;;;;;5.97;5.68;;;;;;;;;;4990070;28;20049;-72
2022/09/25 06:25:32;;;;;;;5.97;5.68;;;;;;;;;;4989880;28;20066;-72
2022/09/25 06:27:59;;;;;;;5.80;5.50;;;;;;;;;;4994040;28;20030;-72
2022/09/25 06:30:29;;;;;;;6.07;5.78;;;;;;;;;;4988432;28;20038;-72
2022/09/25 06:32:56;;;;;;;6.03;5.72;;;;;;;;;;4989967;28;20034;-71
2022/09/25 06:35:22;;;;;;;6.00;5.70;;;;;;;;;;4992102;28;20026;-72
2022/09/25 06:37:47;;;;;;;5.90;5.60;;;;;;;;;;4987477;28;20030;-72
2022/09/25 06:40:13;;;;;;;6.05;5.75;;;;;;;;;;4991376;28;20042;-72
2022/09/25 06:42:39;;;;;;;6.03;5.72;;;;;;;;;;4988625;28;20042;-72
2022/09/25 06:45:04;;;;;;;5.82;5.53;;;;;;;;;;4987511;28;20033;-71
2022/09/25 06:47:30;;;;;;;5.70;5.45;;;;;;;;;;4991403;28;20132;-71
2022/09/25 06:49:56;;;;;;;5.97;5.68;;;;;;;;;;4992696;28;20138;-72
2022/09/25 06:52:22;;;;;;;5.82;5.53;;;;;;;;;;4988989;28;20042;-72
2022/09/25 06:54:47;;;;;;;6.00;5.70;;;;;;;;;;4989913;28;20026;-71
2022/09/25 06:57:14;;;;;;;5.97;5.68;;;;;;;;;;4988530;28;20045;-71
2022/09/25 06:59:39;;;;;;;5.97;5.68;;;;;;;;;;4989409;28;20038;-72
2022/09/25 07:04:50;;;;;;;5.57;5.38;;;;;;;;;;4989737;28;20125;-71
2022/09/25 07:07:19;;;;;;;5.82;5.53;;;;;;;;;;4990676;28;20101;-72
2022/09/25 07:09:47;;;;;;;5.55;5.35;;;;;;;;;;4989325;28;20106;-71
2022/09/25 07:12:20;;;;;;;5.97;5.68;;;;;;;;;;4988602;28;20037;-71
2022/09/25 07:14:46;;;;;;;6.05;5.75;;;;;;;;;;4989459;28;20556;-71
2022/09/25 07:17:14;;;;;;;5.85;5.55;;;;;;;;;;4987413;28;20034;-72
2022/09/25 07:19:40;;;;;;;6.35;6.05;;;;;;;;;;4990779;28;20505;-71
2022/09/25 07:22:05;;;;;;;5.50;5.30;;;;;;;;;;4989121;28;20081;-72
2022/09/25 07:24:31;;;;;;;5.90;5.60;;;;;;;;;;4992351;28;20126;-71
2022/09/25 07:26:57;;;;;;;5.95;5.65;;;;;;;;;;4987121;28;20038;-71
2022/09/25 07:29:22;;;;;;;6.10;5.80;;;;;;;;;;4988382;28;20034;-71
2022/09/25 07:31:48;;;;;;;5.82;5.53;;;;;;;;;;4990232;28;20104;-71
2022/09/25 07:34:14;;;;;;;6.15;5.85;;;;;;;;;;4988194;28;20050;-71
2022/09/25 07:36:41;;;;;;;6.00;5.70;;;;;;;;;;4990612;28;20030;-71
2022/09/25 07:39:07;;;;;;;5.25;5.05;;;;;;;;;;4988338;28;20088;-71
2022/09/25 07:41:33;;;;;;;5.57;5.38;;;;;;;;;;4989156;28;20038;-70
2022/09/25 07:43:59;;;;;;;5.30;5.10;;;;;;;;;;4988258;28;20096;-71
2022/09/25 07:46:26;;;;;;;5.90;5.60;;;;;;;;;;4991567;28;20061;-70
2022/09/25 07:48:52;;;;;;;5.40;5.20;;;;;;;;;;4990453;28;20036;-71
2022/09/25 07:51:20;;;;;;;6.07;5.78;;;;;;;;;;4986051;28;20026;-71
2022/09/25 07:53:46;;;;;;;5.60;5.37;;;;;;;;;;4989153;28;20042;-71
2022/09/25 07:56:12;;;;;;;5.78;5.47;;;;;;;;;;4991636;28;20034;-70
2022/09/25 07:58:39;;;;;;;5.97;5.68;;;;;;;;;;4953255;28;20417;-71
2022/09/25 08:01:07;;;;;;;6.00;5.70;;;;;;;;;;4988076;28;20092;-72
2022/09/25 08:03:33;;;;;;;5.75;5.47;;;;;;;;;;4989409;28;20585;-71
2022/09/25 08:06:08;;;;;;;6.03;5.72;;;;;;;;;;4985447;28;20034;-71
2022/09/25 08:08:34;;;;;;;5.95;5.65;;;;;;;;;;4984429;28;20039;-71
2022/09/25 08:11:05;;;;;;;5.85;5.55;;;;;;;;;;4987583;28;20043;-71
2022/09/25 08:13:32;;;;;;;6.30;6.00;;;;;;;;;;4987942;28;20038;-71
2022/09/25 08:15:58;;;;;;;5.93;5.63;;;;;;;;;;4990524;28;20050;-71
2022/09/25 08:18:23;;;;;;;6.40;6.10;;;;;;;;;;4987438;28;20026;-71
2022/09/25 08:20:49;;;;;;;6.18;5.88;;;;;;;;;;4987999;28;20034;-71
2022/09/25 08:23:15;;;;;;;6.40;6.10;;;;;;;;;;4986542;28;20034;-71
2022/09/25 08:25:40;;;;;;;6.40;6.10;;;;;;;;;;4987438;28;20114;-71
2022/09/25 08:28:06;;;;;;;6.45;6.15;;;;;;;;;;4987571;28;20034;-71
2022/09/25 08:30:31;;;;;;;6.22;5.93;;;;;;;;;;4980218;28;20042;-70
2022/09/25 08:32:57;;;;;;;6.50;6.20;;;;;;;;;;4981249;28;20045;-71
2022/09/25 08:35:23;;;;;;;6.35;6.05;;;;;;;;;;4986041;28;20516;-71
2022/09/25 08:37:48;;;;;;;6.28;5.97;;;;;;;;;;4985739;28;20504;-71
2022/09/25 08:40:19;;;;;;;6.30;6.00;;;;;;;;;;4987222;28;20033;-71
2022/09/25 08:42:48;;;;;;;6.13;5.82;;;;;;;;;;4987336;28;20046;-71
2022/09/25 08:51:12;;;;;;;6.13;5.82;;;;;;;;;;4985302;28;20042;-70
2022/09/25 08:53:39;;;;;;;6.32;6.03;;;;;;;;;;4990619;28;20040;-71
2022/09/25 08:56:14;;;;;;;6.13;5.82;;;;;;;;;;4985683;28;20398;-71
2022/09/25 08:58:53;;;;;;;6.10;5.80;;;;;;;;;;4986670;28;20041;-71
2022/09/25 09:01:24;;;;;;;6.00;5.70;;;;;;;;;;4987201;28;20043;-71
2022/09/25 09:03:56;;;;;;;6.30;6.00;;;;;;;;;;4987618;28;20057;-71
2022/09/25 09:06:24;;;;;;;6.60;6.30;;;;;;;;;;4989344;28;20034;-71
2022/09/25 09:09:45;;;;;;;6.40;6.10;;;;;;;;;;4991581;28;20109;-71
2022/09/25 09:12:18;;;;;;;6.00;5.70;;;;;;;;;;4971561;28;20758;-71
2022/09/25 09:14:47;;;;;;;5.90;5.60;;;;;;;;;;4988121;28;20077;-71
2022/09/25 09:17:19;;;;;;;6.05;5.75;;;;;;;;;;4990247;28;20026;-71
2022/09/25 09:19:47;;;;;;;6.50;6.20;;;;;;;;;;4992836;28;20498;-71
2022/09/25 09:22:17;;;;;;;6.37;6.07;;;;;;;;;;4988440;28;20034;-71
2022/09/25 09:24:45;;;;;;;;;;;;;;;;;;4990358;28;20088;-71
2022/09/25 09:27:22;;;;;;;6.07;5.77;;;;;;;;;;4989068;28;20397;-70
2022/09/25 09:30:17;;;;;;;5.72;5.43;;;;;;;;;;4988010;28;20417;-71
2022/09/25 09:32:42;;;;;;;6.28;5.97;;;;;;;;;;4990132;28;20081;-71
2022/09/25 09:35:43;;;;;;;6.18;5.88;;;;;;;;;;4991725;28;20671;-71
2022/09/25 09:38:34;;;;;;;6.07;5.78;;;;;;;;;;4986925;28;20035;-70
2022/09/25 09:41:17;;;;;;;5.85;5.55;;;;;;;;;;4986251;28;20063;-71
2022/09/25 09:43:49;;;;;;;6.22;5.93;;;;;;;;;;4983780;28;20030;-71
2022/09/25 09:46:48;;;;;;;6.57;6.28;;;;;;;;;;4980536;28;20518;-71
2022/09/25 09:49:28;;;;;;;8.60;8.10;;;;;;;;;;4986983;28;20484;-71
2022/09/25 09:51:56;;;;;;;17.60;9.00;;;;;;;;;;4983201;28;20588;-71
2022/09/25 09:54:31;;;;;;;6.32;6.03;;;;;;;;;;4989306;28;20038;-70
2022/09/25 09:57:00;;;;;;;6.38;6.07;;;;;;;;;;4993903;28;20033;-70
2022/09/25 09:59:30;;;;;;;6.20;5.90;;;;;;;;;;4990458;28;20081;-70
2022/09/25 10:02:10;;;;;;;6.20;5.90;;;;;;;;;;4989857;28;20062;-70
2022/09/25 10:04:39;;;;;;;6.10;5.80;;;;;;;;;;4988749;28;20966;-70
2022/09/25 10:07:13;;;;;;;6.28;5.97;;;;;;;;;;4990521;28;20045;-70
2022/09/25 10:09:38;;;;;;;6.28;5.97;;;;;;;;;;4989048;28;20034;-70
2022/09/25 10:12:14;;;;;;;5.80;5.50;;;;;;;;;;4989256;28;20046;-70
2022/09/25 10:14:45;;;;;;;5.82;5.53;;;;;;;;;;4990013;28;20085;-70
2022/09/25 10:17:11;;;;;;;5.93;5.63;;;;;;;;;;4987071;28;20050;-70
2022/09/25 10:19:50;;;;;;;6.60;6.30;;;;;;;;;;4989367;28;20045;-70
2022/09/25 10:22:19;;;;;;;6.40;6.10;;;;;;;;;;4994778;28;20064;-70
2022/09/25 10:25:03;;;;;;;5.97;5.68;;;;;;;;;;4989258;28;20042;-70
2022/09/25 10:27:37;;;;;;;5.78;5.47;;;;;;;;;;4987708;28;20526;-70
2022/09/25 10:30:09;;;;;;;5.90;5.60;;;;;;;;;;4987450;28;20034;-70
2022/09/25 10:32:42;;;;;;;5.90;5.60;;;;;;;;;;4990115;28;20066;-70
2022/09/25 10:35:26;;;;;;;5.70;5.40;;;;;;;;;;4990452;28;20093;-70
2022/09/25 10:37:55;;;;;;;6.00;5.70;;;;;;;;;;4985964;28;20034;-70
2022/09/25 10:40:36;;;;;;;5.70;5.43;;;;;;;;;;4988920;28;20401;-70
2022/09/25 10:43:23;;;;;;;6.40;6.10;;;;;;;;;;4984771;28;20030;-70
2022/09/25 10:46:04;;;;;;;6.50;6.20;;;;;;;;;;4985651;28;20046;-71
2022/09/25 10:51:20;;;;;;;6.30;6.00;;;;;;;;;;4986306;28;20096;-70
2022/09/25 10:53:51;;;;;;;6.30;6.00;;;;;;;;;;4987724;28;20049;-70
2022/09/25 10:56:35;;;;;;;6.00;5.70;;;;;;;;;;4984366;28;20438;-70
2022/09/25 10:59:01;;;;;;;6.13;5.82;;;;;;;;;;4988034;28;20037;-70
2022/09/25 11:01:41;;;;;;;5.88;5.57;;;;;;;;;;4990898;28;20061;-70
2022/09/25 11:04:18;;;;;;;6.60;6.30;;;;;;;;;;4984684;28;20038;-70
2022/09/25 11:06:51;;;;;;;6.07;5.78;;;;;;;;;;4986722;28;20038;-70
2022/09/25 11:09:20;;;;;;;6.03;5.72;;;;;;;;;;4988697;28;20038;-70
2022/09/25 11:11:48;;;;;;;5.97;5.68;;;;;;;;;;4986884;28;20034;-70
2022/09/25 11:14:34;;;;;;;6.22;5.93;;;;;;;;;;4989084;28;20038;-71
2022/09/25 11:17:07;;;;;;;5.97;5.68;;;;;;;;;;4984532;28;20048;-70
2022/09/25 11:19:37;;;;;;;6.18;5.88;;;;;;;;;;4985836;28;20506;-70
2022/09/25 11:22:24;;;;;;;6.00;5.70;;;;;;;;;;4987395;28;20049;-70
2022/09/25 11:25:09;;;;;;;6.00;5.70;;;;;;;;;;4987675;28;20077;-70
2022/09/25 11:27:55;;;;;;;5.97;5.68;;;;;;;;;;4984430;28;20096;-71
2022/09/25 11:30:22;;;;;;;5.75;5.45;;;;;;;;;;4988592;28;20046;-70
2022/09/25 11:33:06;;;;;;;5.50;5.30;;;;;;;;;;4988840;28;20041;-70
2022/09/25 11:36:04;;;;;;;6.15;5.85;;;;;;;;;;4983242;28;20038;-70
2022/09/25 11:41:40;;;;;;;6.47;6.18;;;;;;;;;;4983771;28;20401;-70
2022/09/25 11:44:12;;;;;;;5.50;5.30;;;;;;;;;;4983783;28;20060;-70
2022/09/25 11:46:51;;;;;;;5.30;5.10;;;;;;;;;;4986157;28;20057;-70
2022/09/25 11:49:25;;;;;;;5.90;5.60;;;;;;;;;;4986468;28;20030;-70
2022/09/25 11:52:04;;;;;;;5.80;5.50;;;;;;;;;;4979657;28;20555;-70
2022/09/25 11:54:54;;;;;;;5.75;5.47;;;;;;;;;;4985735;28;20113;-70
2022/09/25 11:57:40;;;;;;;5.55;5.32;;;;;;;;;;4984521;28;20070;-69
2022/09/25 12:00:08;;;;;;;5.80;5.50;;;;;;;;;;4983460;28;20130;-70
2022/09/25 12:02:56;;;;;;;6.10;5.80;;;;;;;;;;4987741;28;20121;-70
2022/09/25 12:06:06;;;;;;;5.93;5.63;;;;;;;;;;4986889;28;20126;-70
2022/09/25 12:08:49;;;;;;;5.72;5.43;;;;;;;;;;4969433;28;20441;-70
2022/09/25 12:11:52;;;;;;;5.50;5.30;;;;;;;;;;4984660;28;20137;-70
2022/09/25 12:14:45;;;;;;;5.97;5.68;;;;;;;;;;4987411;28;20038;-70
2022/09/25 12:17:33;;;;;;;5.50;5.30;;;;;;;;;;4985794;28;20393;-70
2022/09/25 12:20:25;;;;;;;5.45;5.25;;;;;;;;;;4987128;28;20044;-70
2022/09/25 12:22:53;;;;;;;5.88;5.57;;;;;;;;;;4988588;28;20058;-70
2022/09/25 12:25:28;;;;;;;6.22;5.93;;;;;;;;;;4988152;28;20772;-70
2022/09/25 12:28:46;;;;;;;6.03;5.72;;;;;;;;;;4986774;28;20343;-70
2022/09/25 12:31:38;;;;;;;6.25;5.95;;;;;;;;;;4983580;28;20050;-70
2022/09/25 12:34:19;;;;;;;5.80;5.50;;;;;;;;;;4980256;28;20053;-70
2022/09/25 12:36:51;;;;;;;5.97;5.68;;;;;;;;;;4985000;28;20061;-70
2022/09/25 12:39:36;;;;;;;5.85;5.55;;;;;;;;;;4982371;28;20414;-70
2022/09/25 12:42:16;;;;;;;6.20;5.90;;;;;;;;;;4984771;28;20524;-70
2022/09/25 12:44:46;;;;;;;5.90;5.60;;;;;;;;;;4986682;28;20581;-70
2022/09/25 12:47:33;;;;;;;5.80;5.50;;;;;;;;;;4989127;28;20046;-70
2022/09/25 12:50:40;;;;;;;5.60;5.40;;;;;;;;;;4988557;28;20053;-70
2022/09/25 12:53:24;;;;;;;5.82;5.53;;;;;;;;;;4994750;28;20485;-70
2022/09/25 12:56:01;;;;;;;5.75;5.45;;;;;;;;;;4987557;28;20064;-70
2022/09/25 12:58:57;;;;;;;5.97;5.68;;;;;;;;;;4989980;28;20746;-70
2022/09/25 13:01:46;;;;;;;5.90;5.60;;;;;;;;;;4986480;28;20448;-70
2022/09/25 13:04:47;;;;;;;6.20;5.90;;;;;;;;;;4987489;28;20685;-70
2022/09/25 13:07:48;;;;;;;6.10;5.80;;;;;;;;;;4982365;28;20041;-70
2022/09/25 13:10:28;;;;;;;5.88;5.57;;;;;;;;;;4972868;28;20046;-70
2022/09/25 13:12:57;;;;;;;5.40;5.20;;;;;;;;;;4989477;28;20548;-70
2022/09/25 13:15:28;;;;;;;5.90;5.60;;;;;;;;;;4990689;28;20034;-70
2022/09/25 13:17:55;;;;;;;5.85;5.55;;;;;;;;;;4990330;28;20042;-70
2022/09/25 13:20:27;;;;;;;5.70;5.40;;;;;;;;;;4992094;28;20482;-71
2022/09/25 13:23:05;;;;;;;6.00;5.70;;;;;;;;;;4989277;28;20034;-72
2022/09/25 13:26:11;;;;;;;6.00;5.70;;;;;;;;;;4989352;28;20084;-71
2022/09/25 13:28:50;;;;;;;5.90;5.60;;;;;;;;;;4947219;28;20043;-71
2022/09/25 13:31:27;;;;;;;5.80;5.50;;;;;;;;;;4947855;28;20177;-71
2022/09/25 13:33:59;;;;;;;5.43;5.22;;;;;;;;;;4944316;28;20057;-69
2022/09/25 13:36:24;;;;;;;5.90;5.60;;;;;;;;;;4949055;28;20050;-70
2022/09/25 13:41:54;;;;;;;5.40;5.20;;;;;;;;;;4948085;28;20549;-71
2022/09/25 13:44:41;;;;;;;5.28;5.07;;;;;;;;;;4944824;28;20086;-71
2022/09/25 13:47:24;;;;;;;5.22;5.03;;;;;;;;;;4945579;28;20035;-70
2022/09/25 13:50:11;;;;;;;5.47;5.28;;;;;;;;;;4943799;28;20051;-71
2022/09/25 13:52:37;;;;;;;4.82;4.63;;;;;;;;;;4930948;28;20429;-70
2022/09/25 13:55:21;;;;;;;4.70;4.50;;;;;;;;;;4947977;28;20039;-70
2022/09/25 13:57:57;;;;;;;5.50;5.30;;;;;;;;;;4945444;28;20055;-71
2022/09/25 14:00:45;;;;;;;5.63;5.43;;;;;;;;;;4946712;28;20043;-70
2022/09/25 14:03:47;;;;;;;5.40;5.20;;;;;;;;;;4934075;28;20043;-70
2022/09/25 14:06:22;;;;;;;5.82;5.53;;;;;;;;;;4985833;28;20178;-71
2022/09/25 14:08:50;;;;;;;5.80;5.50;;;;;;;;;;4984430;28;20617;-71
2022/09/25 14:11:21;;;;;;;5.85;5.55;;;;;;;;;;4986837;28;20038;-70
2022/09/25 14:13:51;;;;;;;6.22;5.93;;;;;;;;;;4981421;28;22114;-71
2022/09/25 14:16:29;;;;;;;6.25;5.95;;;;;;;;;;4986982;28;20038;-71
2022/09/25 14:18:57;;;;;;;6.45;6.15;;;;;;;;;;4978730;28;20062;-72
2022/09/25 14:21:25;;;;;;;5.82;5.53;;;;;;;;;;4986587;28;20030;-70
2022/09/25 14:23:53;;;;;;;6.00;5.70;;;;;;;;;;4987992;28;20045;-70
2022/09/25 14:26:27;;;;;;;5.73;5.43;;;;;;;;;;4984175;28;20037;-70
2022/09/25 14:28:55;;;;;;;5.25;5.05;;;;;;;;;;4983466;28;20305;-70
2022/09/25 14:31:36;;;;;;;5.28;5.07;;;;;;;;;;4987448;28;20030;-70
2022/09/25 14:34:36;;;;;;;5.20;5.00;;;;;;;;;;4983540;28;20046;-70
2022/09/25 14:37:40;;;;;;;5.53;5.32;;;;;;;;;;4943521;28;20042;-71
2022/09/25 14:40:28;;;;;;;5.20;5.00;;;;;;;;;;4946502;28;20047;-70
2022/09/25 14:43:06;;;;;;;5.25;5.05;;;;;;;;;;4946035;28;20531;-70
2022/09/25 14:45:50;;;;;;;5.40;5.20;;;;;;;;;;4943528;29;20066;-70
2022/09/25 14:48:21;;;;;;;5.75;5.45;;;;;;;;;;4945209;28;20042;-70
2022/09/25 14:50:52;;;;;;;6.13;5.82;;;;;;;;;;4944705;29;20051;-70
2022/09/25 14:53:32;;;;;;;5.80;5.50;;;;;;;;;;4945031;28;20039;-70
2022/09/25 14:56:00;;;;;;;5.90;5.60;;;;;;;;;;4946983;28;20150;-70
2022/09/25 14:58:31;;;;;;;6.43;6.13;;;;;;;;;;4943835;28;20049;-70
2022/09/25 15:01:25;;;;;;;5.55;5.35;;;;;;;;;;4943951;29;20069;-70
2022/09/25 15:03:52;;;;;;;5.40;5.20;;;;;;;;;;4943806;28;20043;-69
2022/09/25 15:06:28;;;;;;;5.25;5.05;;;;;;;;;;4944493;28;20129;-70
2022/09/25 15:08:55;;;;;;;5.78;5.47;;;;;;;;;;4944357;28;20039;-70
2022/09/25 15:11:24;;;;;;;5.60;5.35;;;;;;;;;;4939222;28;20059;-71
2022/09/25 15:13:50;;;;;;;5.75;5.45;;;;;;;;;;4972378;28;20061;-70
2022/09/25 15:19:14;;;;;;;5.55;5.35;;;;;;;;;;4984720;28;20042;-70
2022/09/25 15:21:41;;;;;;;4.82;4.63;;;;;;;;;;4981987;28;20034;-70
2022/09/25 15:24:17;;;;;;;5.50;5.30;;;;;;;;;;4993417;28;20030;-70
2022/09/25 15:27:05;;;;;;;5.70;5.40;;;;;;;;;;4988216;28;20066;-70
2022/09/25 15:29:42;;;;;;;5.47;5.28;;;;;;;;;;4983038;28;20399;-70
2022/09/25 15:32:17;;;;;;;5.38;5.18;;;;;;;;;;4986030;28;20723;-70
2022/09/25 15:34:43;;;;;;;5.72;5.43;;;;;;;;;;4988204;28;20120;-70
2022/09/25 15:37:25;;;;;;;5.82;5.53;;;;;;;;;;4985100;28;20113;-70
2022/09/25 15:39:51;;;;;;;5.50;5.30;;;;;;;;;;4985512;28;20041;-71
2022/09/25 15:42:16;;;;;;;5.45;5.25;;;;;;;;;;4983088;28;20053;-71
2022/09/25 15:44:43;;;;;;;5.40;5.20;;;;;;;;;;4982881;28;20401;-69